createdAt,value
2022-11-24T00:01:23.408Z,4.07
2022-11-24T00:04:05.118Z,3.80
2022-11-24T00:06:34.648Z,4.00
2022-11-24T00:09:03.742Z,4.15
2022-11-24T00:11:35.333Z,3.08
2022-11-24T00:14:03.849Z,3.60
2022-11-24T00:16:34.376Z,2.70
2022-11-24T00:19:03.716Z,2.83
2022-11-24T00:21:32.161Z,2.90
2022-11-24T00:24:00.291Z,2.60
2022-11-24T00:26:29.766Z,2.78
2022-11-24T00:28:59.498Z,3.57
2022-11-24T00:31:32.150Z,2.70
2022-11-24T00:34:05.022Z,2.35
2022-11-24T00:36:34.286Z,2.20
2022-11-24T00:39:05.057Z,2.50
2022-11-24T00:41:33.090Z,2.50
2022-11-24T00:44:01.420Z,2.30
2022-11-24T00:46:28.880Z,2.33
2022-11-24T00:48:56.901Z,2.67
2022-11-24T00:51:27.824Z,2.45
2022-11-24T00:53:56.331Z,2.35
2022-11-24T00:56:24.636Z,2.63
2022-11-24T00:58:52.117Z,2.13
2022-11-24T01:01:27.444Z,2.33
2022-11-24T01:03:55.672Z,2.60
2022-11-24T01:06:25.192Z,3.17
2022-11-24T01:08:52.659Z,2.90
2022-11-24T01:11:23.243Z,2.78
2022-11-24T01:13:53.909Z,3.15
2022-11-24T01:16:22.731Z,2.70
2022-11-24T01:18:50.067Z,2.97
2022-11-24T01:21:18.303Z,3.20
2022-11-24T01:23:45.820Z,3.30
2022-11-24T01:26:16.425Z,3.10
2022-11-24T01:28:47.076Z,3.20
2022-11-24T01:31:15.646Z,2.92
2022-11-24T01:33:43.082Z,2.97
2022-11-24T01:36:10.377Z,2.65
2022-11-24T01:38:37.573Z,3.45
2022-11-24T01:41:17.149Z,2.75
2022-11-24T01:43:45.782Z,2.80
2022-11-24T01:46:18.597Z,2.33
2022-11-24T01:49:14.377Z,2.60
2022-11-24T01:52:06.825Z,3.08
2022-11-24T01:54:39.470Z,2.43
2022-11-24T01:57:29.931Z,2.85
2022-11-24T02:00:05.297Z,2.58
2022-11-24T02:02:43.603Z,2.50
2022-11-24T02:06:01.683Z,2.87
2022-11-24T02:08:42.370Z,2.95
2022-11-24T02:11:09.760Z,2.35
2022-11-24T02:13:39.771Z,2.38
2022-11-24T02:16:08.931Z,2.40
2022-11-24T02:18:38.870Z,2.60
2022-11-24T02:21:07.151Z,2.55
2022-11-24T02:23:40.501Z,2.35
2022-11-24T02:26:25.674Z,2.40
2022-11-24T02:28:53.179Z,2.30
2022-11-24T02:31:20.460Z,2.58
2022-11-24T02:33:50.005Z,2.10
2022-11-24T02:36:17.363Z,2.40
2022-11-24T02:38:44.628Z,2.42
2022-11-24T02:41:15.009Z,2.60
2022-11-24T02:43:54.962Z,2.65
2022-11-24T02:46:22.363Z,2.40
2022-11-24T02:48:49.824Z,2.22
2022-11-24T02:51:17.220Z,2.55
2022-11-24T02:53:44.500Z,2.83
2022-11-24T02:56:11.751Z,2.70
2022-11-24T02:58:39.013Z,2.40
2022-11-24T03:01:06.340Z,2.40
2022-11-24T03:03:33.716Z,2.78
2022-11-24T03:06:00.896Z,2.20
2022-11-24T03:08:28.078Z,2.80
2022-11-24T03:10:55.334Z,3.10
2022-11-24T03:13:22.530Z,2.50
2022-11-24T03:15:49.731Z,2.87
2022-11-24T03:18:16.938Z,3.13
2022-11-24T03:20:44.166Z,2.60
2022-11-24T03:23:11.533Z,2.70
2022-11-24T03:25:38.728Z,2.70
2022-11-24T03:28:06.590Z,2.80
2022-11-24T03:30:33.780Z,3.00
2022-11-24T03:33:01.021Z,2.33
2022-11-24T03:35:28.216Z,2.67
2022-11-24T03:37:55.405Z,2.60
2022-11-24T03:40:22.638Z,2.28
2022-11-24T03:42:49.858Z,2.40
2022-11-24T03:45:38.474Z,2.53
2022-11-24T03:48:04.567Z,2.80
2022-11-24T03:50:31.815Z,2.17
2022-11-24T03:52:59.216Z,2.50
2022-11-24T03:55:26.395Z,2.58
2022-11-24T03:57:53.575Z,2.40
2022-11-24T04:00:20.818Z,2.40
2022-11-24T04:02:48.428Z,2.42
2022-11-24T04:05:15.909Z,2.13
2022-11-24T04:07:43.176Z,2.40
2022-11-24T04:10:10.559Z,2.30
2022-11-24T04:12:43.917Z,2.10
2022-11-24T04:15:13.895Z,1.95
2022-11-24T04:17:41.040Z,1.70
2022-11-24T04:20:09.522Z,1.67
2022-11-24T04:22:36.940Z,1.77
2022-11-24T04:25:05.400Z,1.88
2022-11-24T04:27:33.576Z,1.45
2022-11-24T04:30:00.718Z,1.65
2022-11-24T04:32:28.152Z,1.43
2022-11-24T04:34:55.336Z,1.60
2022-11-24T04:37:22.506Z,1.50
2022-11-24T04:39:49.784Z,1.45
2022-11-24T04:42:16.917Z,1.50
2022-11-24T04:44:44.207Z,1.60
2022-11-24T04:47:16.973Z,1.70
2022-11-24T04:49:44.080Z,1.60
2022-11-24T04:52:11.194Z,1.95
2022-11-24T04:54:38.474Z,1.85
2022-11-24T04:57:05.609Z,2.08
2022-11-24T04:59:32.798Z,1.97
2022-11-24T05:01:59.938Z,2.13
2022-11-24T05:04:27.237Z,2.42
2022-11-24T05:06:54.387Z,2.30
2022-11-24T05:09:21.532Z,2.22
2022-11-24T05:11:49.896Z,2.20
2022-11-24T05:14:17.020Z,2.22
2022-11-24T05:16:44.149Z,2.20
2022-11-24T05:19:11.328Z,2.38
2022-11-24T05:21:38.576Z,1.90
2022-11-24T05:24:06.023Z,2.00
2022-11-24T05:26:33.252Z,1.77
2022-11-24T05:29:00.753Z,1.90
2022-11-24T05:31:28.027Z,1.80
2022-11-24T05:33:55.168Z,2.50
2022-11-24T05:36:41.120Z,2.28
2022-11-24T05:39:08.267Z,2.25
2022-11-24T05:41:35.476Z,2.00
2022-11-24T05:44:02.589Z,1.50
2022-11-24T05:46:29.780Z,1.40
2022-11-24T05:48:57.005Z,0.90
2022-11-24T05:51:24.196Z,0.80
2022-11-24T05:53:51.381Z,0.85
2022-11-24T05:56:18.537Z,0.80
2022-11-24T05:58:45.697Z,0.80
2022-11-24T06:01:12.897Z,1.00
2022-11-24T06:03:40.004Z,1.00
2022-11-24T06:06:07.358Z,0.90
2022-11-24T06:08:34.482Z,0.80
2022-11-24T06:11:20.483Z,1.00
2022-11-24T06:13:51.036Z,1.00
2022-11-24T06:16:18.397Z,1.00
2022-11-24T06:18:45.534Z,0.93
2022-11-24T06:21:12.660Z,0.90
2022-11-24T06:23:40.150Z,1.08
2022-11-24T06:26:07.390Z,1.00
2022-11-24T06:28:34.691Z,1.00
2022-11-24T06:31:03.876Z,0.90
2022-11-24T06:33:36.322Z,1.10
2022-11-24T06:36:05.880Z,1.00
2022-11-24T06:38:35.218Z,0.88
2022-11-24T06:41:06.157Z,1.00
2022-11-24T06:43:34.580Z,0.90
2022-11-24T06:46:02.688Z,0.77
2022-11-24T06:48:30.917Z,1.00
2022-11-24T06:51:03.190Z,1.00
2022-11-24T06:53:38.757Z,1.02
2022-11-24T06:56:13.732Z,1.20
2022-11-24T06:58:45.046Z,1.10
2022-11-24T07:01:25.506Z,1.17
2022-11-24T07:03:54.029Z,1.67
2022-11-24T07:06:23.258Z,2.00
2022-11-24T07:08:50.609Z,2.15
2022-11-24T07:11:20.578Z,2.47
2022-11-24T07:13:48.314Z,3.00
2022-11-24T07:16:21.080Z,3.35
2022-11-24T07:18:49.962Z,3.67
2022-11-24T07:21:17.674Z,3.80
2022-11-24T07:23:47.602Z,4.30
2022-11-24T07:26:14.873Z,4.78
2022-11-24T07:28:42.055Z,4.93
2022-11-24T07:31:14.645Z,4.40
2022-11-24T07:33:41.860Z,4.72
2022-11-24T07:36:09.601Z,5.70
2022-11-24T07:38:36.815Z,5.57
2022-11-24T07:41:09.923Z,5.00
2022-11-24T07:43:38.410Z,5.90
2022-11-24T07:46:07.269Z,5.30
2022-11-24T07:48:35.167Z,5.30
2022-11-24T07:51:04.189Z,5.82
2022-11-24T07:53:32.744Z,5.10
2022-11-24T07:56:01.721Z,5.27
2022-11-24T07:58:32.874Z,5.50
2022-11-24T08:01:08.374Z,5.43
2022-11-24T08:03:35.734Z,5.85
2022-11-24T08:08:50.720Z,5.50
2022-11-24T08:11:18.298Z,5.00
2022-11-24T08:13:45.828Z,5.10
2022-11-24T08:16:15.427Z,5.40
2022-11-24T08:18:43.117Z,4.80
2022-11-24T08:21:13.883Z,5.57
2022-11-24T08:23:41.764Z,5.53
2022-11-24T08:26:14.145Z,5.00
2022-11-24T08:28:41.522Z,5.55
2022-11-24T08:31:11.755Z,5.28
2022-11-24T08:33:39.533Z,5.18
2022-11-24T08:36:10.213Z,5.30
2022-11-24T08:38:37.576Z,4.90
2022-11-24T08:41:07.727Z,4.75
2022-11-24T08:43:35.548Z,5.20
2022-11-24T08:46:04.932Z,4.65
2022-11-24T08:48:33.199Z,4.47
2022-11-24T08:51:07.679Z,3.97
2022-11-24T08:53:34.847Z,4.03
2022-11-24T08:56:02.977Z,4.90
2022-11-24T08:58:30.873Z,4.75
2022-11-24T09:01:12.031Z,4.10
2022-11-24T09:03:43.528Z,4.45
2022-11-24T09:06:16.632Z,4.72
2022-11-24T09:08:43.838Z,4.50
2022-11-24T09:11:13.467Z,4.18
2022-11-24T09:13:40.825Z,4.22
2022-11-24T09:16:13.665Z,3.80
2022-11-24T09:18:41.576Z,4.00
2022-11-24T09:21:19.421Z,4.47
2022-11-24T09:23:49.113Z,3.90
2022-11-24T09:26:19.674Z,4.10
2022-11-24T09:28:47.205Z,3.88
2022-11-24T09:31:17.085Z,3.55
2022-11-24T09:33:45.266Z,3.40
2022-11-24T09:36:13.353Z,3.43
2022-11-24T09:38:41.054Z,3.50
2022-11-24T09:41:25.146Z,3.70
2022-11-24T09:44:09.165Z,3.30
2022-11-24T09:47:00.334Z,3.17
2022-11-24T09:49:46.144Z,3.27
2022-11-24T09:52:31.805Z,3.70
2022-11-24T09:55:02.744Z,3.10
2022-11-24T09:57:37.547Z,3.10
2022-11-24T10:00:12.861Z,3.00
2022-11-24T10:02:40.289Z,2.80
2022-11-24T10:05:07.862Z,3.03
2022-11-24T10:08:09.463Z,2.93
2022-11-24T10:10:58.469Z,2.85
2022-11-24T10:14:04.058Z,2.90
2022-11-24T10:17:03.771Z,2.92
2022-11-24T10:19:52.329Z,2.90
2022-11-24T10:22:45.321Z,2.97
2022-11-24T10:25:24.485Z,3.20
2022-11-24T10:28:01.124Z,3.35
2022-11-24T10:30:29.424Z,3.33
2022-11-24T10:33:01.876Z,3.00
2022-11-24T10:35:57.796Z,3.00
2022-11-24T10:38:52.656Z,2.85
2022-11-24T10:41:28.924Z,3.28
2022-11-24T10:43:58.241Z,3.13
2022-11-24T10:46:31.401Z,2.70
2022-11-24T10:49:04.398Z,3.10
2022-11-24T10:51:40.530Z,3.23
2022-11-24T10:54:13.139Z,2.80
2022-11-24T10:56:41.978Z,2.85
2022-11-24T10:59:24.277Z,3.10
2022-11-24T11:01:52.694Z,3.63
2022-11-24T11:04:32.451Z,2.88
2022-11-24T11:07:09.009Z,3.00
2022-11-24T11:09:36.475Z,2.92
2022-11-24T11:15:24.733Z,2.78
2022-11-24T11:17:57.304Z,3.30
2022-11-24T11:20:32.444Z,3.60
2022-11-24T11:23:13.109Z,2.80
2022-11-24T11:25:41.149Z,3.20
2022-11-24T11:28:22.890Z,2.95
2022-11-24T11:31:18.043Z,3.33
2022-11-24T11:34:20.847Z,3.30
2022-11-24T11:36:56.035Z,3.50
2022-11-24T11:39:35.454Z,3.30
2022-11-24T11:42:10.600Z,3.40
2022-11-24T11:44:48.539Z,3.60
2022-11-24T11:47:38.676Z,3.88
2022-11-24T11:50:13.370Z,3.05
2022-11-24T11:53:08.359Z,3.80
2022-11-24T11:55:58.353Z,3.63
2022-11-24T11:58:50.521Z,3.67
2022-11-24T12:01:35.826Z,3.40
2022-11-24T12:04:20.274Z,3.47
2022-11-24T12:06:53.247Z,3.70
2022-11-24T12:09:48.065Z,3.60
2022-11-24T12:12:42.644Z,3.58
2022-11-24T12:15:27.135Z,3.70
2022-11-24T12:18:55.269Z,3.47
2022-11-24T12:21:34.135Z,3.92
2022-11-24T12:24:19.838Z,3.50
2022-11-24T12:26:53.691Z,3.90
2022-11-24T12:29:42.351Z,3.60
2022-11-24T12:32:47.375Z,4.18
2022-11-24T12:35:46.316Z,3.78
2022-11-24T12:38:37.496Z,3.97
2022-11-24T12:41:43.066Z,3.50
2022-11-24T12:44:21.165Z,3.67
2022-11-24T12:46:53.784Z,3.67
2022-11-24T12:49:39.794Z,3.88
2022-11-24T12:52:35.189Z,3.90
2022-11-24T12:55:03.247Z,4.05
2022-11-24T12:57:39.755Z,3.77
2022-11-24T13:00:16.639Z,4.00
2022-11-24T13:02:58.574Z,3.83
2022-11-24T13:05:48.249Z,3.60
2022-11-24T13:08:16.000Z,3.97
2022-11-24T13:10:58.565Z,3.50
2022-11-24T13:13:59.658Z,3.87
2022-11-24T13:16:36.248Z,3.72
2022-11-24T13:19:14.314Z,3.63
2022-11-24T13:21:41.759Z,3.40
2022-11-24T13:24:19.196Z,3.50
2022-11-24T13:26:51.319Z,3.47
2022-11-24T13:29:30.279Z,3.72
2022-11-24T13:32:06.294Z,3.78
2022-11-24T13:34:39.571Z,3.65
2022-11-24T13:37:31.983Z,3.85
2022-11-24T13:40:12.045Z,3.72
2022-11-24T13:43:02.018Z,3.40
2022-11-24T13:45:46.987Z,3.45
2022-11-24T13:48:20.360Z,3.50
2022-11-24T13:50:50.916Z,3.58
2022-11-24T13:53:45.197Z,3.88
2022-11-24T13:56:12.331Z,3.70
2022-11-24T13:58:40.862Z,3.85
2022-11-24T14:01:24.435Z,3.90
2022-11-24T14:04:31.565Z,3.80
2022-11-24T14:07:08.338Z,3.53
2022-11-24T14:09:47.945Z,3.80
2022-11-24T14:12:23.462Z,3.70
2022-11-24T14:14:53.003Z,3.80
2022-11-24T14:17:24.531Z,3.60
2022-11-24T14:19:54.023Z,3.67
2022-11-24T14:22:40.526Z,4.00
2022-11-24T14:25:27.823Z,3.87
2022-11-24T14:27:55.146Z,3.47
2022-11-24T14:30:24.017Z,3.10
2022-11-24T14:32:59.456Z,3.75
2022-11-24T14:35:31.859Z,3.88
2022-11-24T14:38:01.791Z,3.38
2022-11-24T14:40:38.145Z,3.90
2022-11-24T14:43:15.856Z,3.50
2022-11-24T14:46:05.888Z,3.53
2022-11-24T14:48:38.609Z,3.55
2022-11-24T14:51:36.576Z,4.13
2022-11-24T14:54:12.294Z,3.03
2022-11-24T14:56:40.071Z,2.90
2022-11-24T14:59:22.462Z,3.10
2022-11-24T15:01:49.955Z,3.10
2022-11-24T15:05:01.756Z,3.22
2022-11-24T15:07:29.472Z,3.60
2022-11-24T15:09:59.497Z,3.35
2022-11-24T15:12:28.695Z,3.50
2022-11-24T15:15:06.349Z,3.72
2022-11-24T15:17:34.043Z,3.25
2022-11-24T15:20:23.466Z,3.22
2022-11-24T15:22:52.369Z,3.60
2022-11-24T15:25:39.852Z,3.60
2022-11-24T15:28:08.523Z,3.00
2022-11-24T15:30:36.832Z,3.75
2022-11-24T15:33:15.820Z,3.30
2022-11-24T15:35:43.706Z,3.60
2022-11-24T15:38:11.832Z,3.47
2022-11-24T15:40:40.329Z,3.20
2022-11-24T15:43:21.404Z,3.40
2022-11-24T15:45:48.601Z,3.30
2022-11-24T15:48:18.167Z,3.17
2022-11-24T15:50:46.548Z,2.70
2022-11-24T15:53:34.190Z,2.85
2022-11-24T15:56:08.357Z,2.88
2022-11-24T15:58:35.589Z,3.40
2022-11-24T16:01:02.838Z,3.10
2022-11-24T16:03:48.036Z,2.97
2022-11-24T16:06:24.258Z,2.90
2022-11-24T16:08:54.028Z,2.90
2022-11-24T16:11:21.918Z,2.97
2022-11-24T16:13:52.801Z,2.67
2022-11-24T16:16:21.067Z,2.85
2022-11-24T16:18:48.599Z,3.28
2022-11-24T16:21:15.794Z,2.97
2022-11-24T16:23:42.985Z,3.10
2022-11-24T16:26:10.619Z,2.67
2022-11-24T16:28:37.890Z,3.03
2022-11-24T16:31:05.414Z,3.23
2022-11-24T16:33:32.692Z,2.80
2022-11-24T16:35:59.878Z,2.60
2022-11-24T16:38:27.189Z,3.20
2022-11-24T16:40:56.185Z,2.50
2022-11-24T16:43:24.528Z,2.58
2022-11-24T16:46:16.393Z,2.95
2022-11-24T16:48:44.864Z,2.70
2022-11-24T16:51:13.644Z,2.67
2022-11-24T16:53:41.351Z,2.70
2022-11-24T16:56:08.637Z,2.30
2022-11-24T16:58:40.844Z,2.72
2022-11-24T17:01:10.992Z,2.72
2022-11-24T17:03:38.903Z,2.80
2022-11-24T17:06:08.399Z,2.78
2022-11-24T17:08:36.730Z,2.90
2022-11-24T17:11:17.855Z,2.60
2022-11-24T17:13:46.977Z,2.72
2022-11-24T17:16:16.550Z,2.67
2022-11-24T17:18:44.600Z,2.58
2022-11-24T17:21:14.403Z,2.47
2022-11-24T17:23:41.795Z,2.63
2022-11-24T17:26:15.309Z,2.90
2022-11-24T17:28:43.205Z,2.77
2022-11-24T17:31:20.029Z,3.38
2022-11-24T17:33:47.432Z,2.33
2022-11-24T17:36:14.939Z,2.30
2022-11-24T17:38:42.286Z,2.72
2022-11-24T17:41:09.524Z,2.75
2022-11-24T17:43:36.764Z,3.53
2022-11-24T17:46:04.738Z,2.70
2022-11-24T17:48:32.663Z,3.50
2022-11-24T17:51:07.893Z,2.33
2022-11-24T17:53:39.413Z,2.63
2022-11-24T17:56:08.314Z,2.85
2022-11-24T17:58:41.349Z,3.03
2022-11-24T18:01:11.093Z,2.63
2022-11-24T18:03:39.595Z,3.40
2022-11-24T18:06:10.937Z,2.63
2022-11-24T18:08:39.840Z,2.67
2022-11-24T18:11:11.106Z,2.38
2022-11-24T18:13:58.046Z,3.20
2022-11-24T18:16:29.904Z,3.28
2022-11-24T18:19:14.877Z,2.58
2022-11-24T18:21:44.581Z,3.20
2022-11-24T18:24:12.553Z,3.00
2022-11-24T18:26:41.428Z,3.30
2022-11-24T18:29:09.300Z,3.00
2022-11-24T18:31:37.602Z,3.03
2022-11-24T18:34:05.891Z,2.67
2022-11-24T18:36:33.542Z,2.90
2022-11-24T18:39:04.645Z,3.10
2022-11-24T18:41:31.924Z,2.90
2022-11-24T18:44:02.367Z,3.17
2022-11-24T18:46:29.683Z,2.57
2022-11-24T18:48:59.550Z,3.30
2022-11-24T18:51:27.276Z,3.33
2022-11-24T18:53:54.699Z,2.50
2022-11-24T18:56:21.864Z,2.75
2022-11-24T18:58:56.305Z,3.42
2022-11-24T19:01:26.170Z,2.83
2022-11-24T19:03:58.393Z,2.83
2022-11-24T19:06:28.844Z,3.92
2022-11-24T19:08:56.281Z,3.28
2022-11-24T19:11:29.019Z,2.80
2022-11-24T19:13:56.714Z,2.40
2022-11-24T19:16:24.996Z,3.30
2022-11-24T19:18:56.563Z,3.03
2022-11-24T19:21:23.704Z,2.80
2022-11-24T19:23:50.868Z,3.13
2022-11-24T19:26:18.585Z,3.25
2022-11-24T19:28:45.930Z,3.63
2022-11-24T19:31:14.815Z,3.30
2022-11-24T19:33:42.336Z,2.90
2022-11-24T19:36:17.923Z,3.37
2022-11-24T19:38:55.867Z,3.30
2022-11-24T19:41:29.139Z,2.80
2022-11-24T19:43:57.844Z,3.10
2022-11-24T19:46:27.582Z,3.43
2022-11-24T19:48:57.269Z,2.92
2022-11-24T19:51:27.611Z,2.78
2022-11-24T19:53:54.751Z,3.05
2022-11-24T19:56:24.318Z,3.25
2022-11-24T19:58:53.060Z,2.65
2022-11-24T20:01:21.522Z,3.03
2022-11-24T20:04:04.426Z,3.40
2022-11-24T20:06:35.231Z,2.80
2022-11-24T20:09:04.681Z,3.37
2022-11-24T20:11:31.880Z,2.55
2022-11-24T20:13:59.063Z,3.17
2022-11-24T20:16:31.116Z,3.00
2022-11-24T20:19:05.476Z,2.55
2022-11-24T20:21:34.233Z,3.00
2022-11-24T20:24:02.567Z,2.40
2022-11-24T20:26:33.016Z,2.77
2022-11-24T20:29:00.748Z,2.63
2022-11-24T20:31:37.332Z,2.90
2022-11-24T20:34:06.531Z,3.55
2022-11-24T20:36:35.328Z,3.83
2022-11-24T20:39:05.849Z,3.90
2022-11-24T20:41:34.462Z,3.20
2022-11-24T20:44:05.041Z,3.00
2022-11-24T20:46:34.599Z,2.78
2022-11-24T20:49:03.588Z,2.50
2022-11-24T20:51:33.762Z,3.15
2022-11-24T20:54:03.840Z,3.20
2022-11-24T20:56:34.965Z,2.88
2022-11-24T20:59:03.581Z,2.55
2022-11-24T21:01:38.164Z,2.63
2022-11-24T21:04:08.524Z,3.77
2022-11-24T21:06:36.410Z,2.80
2022-11-24T21:09:05.095Z,2.58
2022-11-24T21:11:32.675Z,3.50
2022-11-24T21:14:01.252Z,2.77
2022-11-24T21:16:33.683Z,2.58
2022-11-24T21:19:12.998Z,3.33
2022-11-24T21:21:42.394Z,3.40
2022-11-24T21:24:17.802Z,2.80
2022-11-24T21:26:51.609Z,2.40
2022-11-24T21:29:21.805Z,3.00
2022-11-24T21:31:49.100Z,2.75
2022-11-24T21:34:18.854Z,3.03
2022-11-24T21:36:46.553Z,2.83
2022-11-24T21:39:15.251Z,3.00
2022-11-24T21:41:43.109Z,3.35
2022-11-24T21:44:14.134Z,2.70
2022-11-24T21:46:48.058Z,2.40
2022-11-24T21:49:18.393Z,2.53
2022-11-24T21:51:45.603Z,3.10
2022-11-24T21:54:12.789Z,2.17
2022-11-24T21:56:39.983Z,2.38
2022-11-24T21:59:07.252Z,2.60
2022-11-24T22:01:34.530Z,2.45
2022-11-24T22:04:01.804Z,2.50
2022-11-24T22:06:29.075Z,2.50
2022-11-24T22:08:56.282Z,3.00
2022-11-24T22:11:25.366Z,2.83
2022-11-24T22:13:53.185Z,2.97
2022-11-24T22:16:22.504Z,2.90
2022-11-24T22:18:50.278Z,2.50
2022-11-24T22:21:23.966Z,2.88
2022-11-24T22:23:52.633Z,3.03
2022-11-24T22:26:21.881Z,2.90
2022-11-24T22:28:49.959Z,3.25
2022-11-24T22:31:19.705Z,2.70
2022-11-24T22:33:48.029Z,2.90
2022-11-24T22:36:16.584Z,2.95
2022-11-24T22:38:44.128Z,3.17
2022-11-24T22:41:17.288Z,2.95
2022-11-24T22:43:45.826Z,3.15
2022-11-24T22:46:15.866Z,2.70
2022-11-24T22:48:45.038Z,2.97
2022-11-24T22:51:24.092Z,2.40
2022-11-24T22:53:53.562Z,3.20
2022-11-24T22:56:21.493Z,2.87
2022-11-24T22:58:50.071Z,3.25
2022-11-24T23:01:23.086Z,2.60
2022-11-24T23:03:53.497Z,2.85
2022-11-24T23:06:23.850Z,2.63
2022-11-24T23:08:51.864Z,2.95
2022-11-24T23:11:30.724Z,3.08
2022-11-24T23:14:00.489Z,2.72
2022-11-24T23:16:28.856Z,3.27
2022-11-24T23:18:56.533Z,2.93
2022-11-24T23:21:29.698Z,2.83
2022-11-24T23:23:58.978Z,3.57
2022-11-24T23:26:37.627Z,3.37
2022-11-24T23:29:06.073Z,2.90
2022-11-24T23:31:33.727Z,3.35
2022-11-24T23:34:02.720Z,3.50
2022-11-24T23:36:30.303Z,2.88
2022-11-24T23:39:02.281Z,3.05
2022-11-24T23:41:30.573Z,3.13
2022-11-24T23:43:57.805Z,2.63
2022-11-24T23:46:27.268Z,3.40
2022-11-24T23:48:55.443Z,2.67
2022-11-24T23:51:27.970Z,2.95
2022-11-24T23:53:55.724Z,3.05
2022-11-24T23:56:31.442Z,3.15
2022-11-24T23:58:59.827Z,3.40
